sensor_id;sensor_type;location;lat;lon;timestamp;pressure;altitude;pressure_sealevel;temperature;humidity
62694;BME280;48759;52.544;13.418;2023-03-23T00:01:12;99938.84;;;18.77;46.80
62694;BME280;48759;52.544;13.418;2023-03-23T00:03:41;99930.41;;;18.11;47.83
62694;BME280;48759;52.544;13.418;2023-03-23T00:06:08;99932.94;;;19.09;46.23
62694;BME280;48759;52.544;13.418;2023-03-23T00:08:37;99926.88;;;18.82;46.42
62694;BME280;48759;52.544;13.418;2023-03-23T00:11:11;99919.31;;;18.97;46.65
62694;BME280;48759;52.544;13.418;2023-03-23T00:13:40;99913.66;;;19.18;46.12
62694;BME280;48759;52.544;13.418;2023-03-23T00:16:08;99918.13;;;19.34;45.95
62694;BME280;48759;52.544;13.418;2023-03-23T00:18:49;99912.94;;;19.66;45.49
62694;BME280;48759;52.544;13.418;2023-03-23T00:21:18;99918.13;;;19.34;45.31
62694;BME280;48759;52.544;13.418;2023-03-23T00:23:44;99917.09;;;18.69;46.87
62694;BME280;48759;52.544;13.418;2023-03-23T00:26:12;99910.97;;;18.87;46.77
62694;BME280;48759;52.544;13.418;2023-03-23T00:28:38;99910.69;;;18.38;47.73
62694;BME280;48759;52.544;13.418;2023-03-23T00:31:07;99907.34;;;18.41;47.73
62694;BME280;48759;52.544;13.418;2023-03-23T00:33:36;99900.94;;;18.46;47.69
62694;BME280;48759;52.544;13.418;2023-03-23T00:36:09;99903.13;;;18.44;47.88
62694;BME280;48759;52.544;13.418;2023-03-23T00:38:37;99898.19;;;18.66;47.75
62694;BME280;48759;52.544;13.418;2023-03-23T00:41:05;99900.38;;;18.39;47.94
62694;BME280;48759;52.544;13.418;2023-03-23T00:43:33;99888.63;;;17.86;49.27
62694;BME280;48759;52.544;13.418;2023-03-23T00:46:01;99889.25;;;18.49;48.09
62694;BME280;48759;52.544;13.418;2023-03-23T00:48:34;99879.47;;;18.26;48.54
62694;BME280;48759;52.544;13.418;2023-03-23T00:51:02;99880.06;;;18.63;47.49
62694;BME280;48759;52.544;13.418;2023-03-23T00:53:32;99882.44;;;19.16;46.82
62694;BME280;48759;52.544;13.418;2023-03-23T00:55:59;99866.66;;;18.20;48.25
62694;BME280;48759;52.544;13.418;2023-03-23T00:58:26;99872.50;;;18.13;48.76
62694;BME280;48759;52.544;13.418;2023-03-23T01:07:51;99854.41;;;18.71;47.72
62694;BME280;48759;52.544;13.418;2023-03-23T01:10:20;99857.50;;;18.50;47.10
62694;BME280;48759;52.544;13.418;2023-03-23T01:12:46;99854.69;;;18.24;48.04
62694;BME280;48759;52.544;13.418;2023-03-23T01:15:14;99861.34;;;17.98;48.58
62694;BME280;48759;52.544;13.418;2023-03-23T01:17:42;99856.88;;;17.82;48.87
62694;BME280;48759;52.544;13.418;2023-03-23T01:20:10;99851.34;;;18.07;49.00
62694;BME280;48759;52.544;13.418;2023-03-23T01:22:37;99851.63;;;18.26;47.81
62694;BME280;48759;52.544;13.418;2023-03-23T01:25:05;99854.13;;;18.48;48.21
62694;BME280;48759;52.544;13.418;2023-03-23T01:27:34;99841.59;;;18.20;48.32
62694;BME280;48759;52.544;13.418;2023-03-23T01:30:01;99839.38;;;18.32;48.16
62694;BME280;48759;52.544;13.418;2023-03-23T01:32:28;99839.63;;;17.90;48.86
62694;BME280;48759;52.544;13.418;2023-03-23T01:34:55;99839.06;;;17.98;49.19
62694;BME280;48759;52.544;13.418;2023-03-23T01:37:22;99839.38;;;18.32;48.30
62694;BME280;48759;52.544;13.418;2023-03-23T01:39:52;99827.91;;;18.44;48.03
62694;BME280;48759;52.544;13.418;2023-03-23T01:42:21;99840.19;;;18.32;48.25
62694;BME280;48759;52.544;13.418;2023-03-23T01:47:57;99836.28;;;18.59;47.61
62694;BME280;48759;52.544;13.418;2023-03-23T01:50:26;99835.22;;;18.50;47.77
62694;BME280;48759;52.544;13.418;2023-03-23T01:52:56;99829.06;;;18.53;47.98
62694;BME280;48759;52.544;13.418;2023-03-23T01:55:26;99836.50;;;18.88;47.24
62694;BME280;48759;52.544;13.418;2023-03-23T01:57:54;99818.09;;;18.87;46.97
62694;BME280;48759;52.544;13.418;2023-03-23T02:00:22;99813.47;;;18.57;47.45
62694;BME280;48759;52.544;13.418;2023-03-23T02:02:54;99819.59;;;18.49;47.91
62694;BME280;48759;52.544;13.418;2023-03-23T02:05:26;99824.91;;;18.50;47.84
62694;BME280;48759;52.544;13.418;2023-03-23T02:07:57;99813.34;;;18.97;46.83
62694;BME280;48759;52.544;13.418;2023-03-23T02:10:29;99807.56;;;18.74;46.98
62694;BME280;48759;52.544;13.418;2023-03-23T02:12:56;99815.06;;;18.78;47.19
62694;BME280;48759;52.544;13.418;2023-03-23T02:15:25;99815.97;;;18.13;48.28
62694;BME280;48759;52.544;13.418;2023-03-23T02:18:00;99823.22;;;18.34;47.90
62694;BME280;48759;52.544;13.418;2023-03-23T02:20:38;99816.72;;;18.74;47.42
62694;BME280;48759;52.544;13.418;2023-03-23T02:23:21;99805.94;;;18.22;47.94
62694;BME280;48759;52.544;13.418;2023-03-23T02:26:12;99799.78;;;18.35;47.84
62694;BME280;48759;52.544;13.418;2023-03-23T02:29:02;99803.88;;;18.93;47.06
62694;BME280;48759;52.544;13.418;2023-03-23T02:31:45;99795.03;;;18.66;47.26
62694;BME280;48759;52.544;13.418;2023-03-23T02:34:16;99793.13;;;18.21;47.95
62694;BME280;48759;52.544;13.418;2023-03-23T02:36:48;99802.59;;;18.55;47.32
62694;BME280;48759;52.544;13.418;2023-03-23T02:39:21;99800.91;;;18.39;46.92
62694;BME280;48759;52.544;13.418;2023-03-23T02:41:51;99803.75;;;19.19;46.12
62694;BME280;48759;52.544;13.418;2023-03-23T02:44:21;99812.19;;;19.03;46.35
62694;BME280;48759;52.544;13.418;2023-03-23T02:46:48;99817.78;;;19.03;46.21
62694;BME280;48759;52.544;13.418;2023-03-23T02:49:19;99818.97;;;18.67;47.38
62694;BME280;48759;52.544;13.418;2023-03-23T02:51:48;99801.75;;;18.19;48.07
62694;BME280;48759;52.544;13.418;2023-03-23T02:54:18;99806.09;;;18.91;48.14
62694;BME280;48759;52.544;13.418;2023-03-23T02:56:48;99800.97;;;19.19;48.39
62694;BME280;48759;52.544;13.418;2023-03-23T02:59:17;99802.13;;;19.07;48.03
62694;BME280;48759;52.544;13.418;2023-03-23T03:02:05;99800.97;;;19.14;48.45
62694;BME280;48759;52.544;13.418;2023-03-23T03:04:36;99797.53;;;18.73;48.56
62694;BME280;48759;52.544;13.418;2023-03-23T03:07:37;99792.50;;;19.39;47.66
62694;BME280;48759;52.544;13.418;2023-03-23T03:10:16;99790.66;;;19.19;48.07
62694;BME280;48759;52.544;13.418;2023-03-23T03:12:51;99789.94;;;18.83;49.14
62694;BME280;48759;52.544;13.418;2023-03-23T03:15:27;99790.63;;;19.73;47.37
62694;BME280;48759;52.544;13.418;2023-03-23T03:18:00;99784.63;;;19.51;47.81
62694;BME280;48759;52.544;13.418;2023-03-23T03:20:32;99786.44;;;18.32;49.36
62694;BME280;48759;52.544;13.418;2023-03-23T03:23:01;99787.56;;;19.26;48.37
62694;BME280;48759;52.544;13.418;2023-03-23T03:25:29;99797.19;;;18.84;48.95
62694;BME280;48759;52.544;13.418;2023-03-23T03:27:56;99794.59;;;19.08;48.31
62694;BME280;48759;52.544;13.418;2023-03-23T03:30:28;99783.22;;;18.94;48.17
62694;BME280;48759;52.544;13.418;2023-03-23T03:32:57;99793.63;;;19.38;47.96
62694;BME280;48759;52.544;13.418;2023-03-23T03:35:25;99793.41;;;19.29;47.57
62694;BME280;48759;52.544;13.418;2023-03-23T03:37:55;99803.63;;;19.49;47.41
62694;BME280;48759;52.544;13.418;2023-03-23T03:40:22;99796.31;;;19.04;48.23
62694;BME280;48759;52.544;13.418;2023-03-23T03:42:50;99795.91;;;18.41;49.65
62694;BME280;48759;52.544;13.418;2023-03-23T03:45:18;99797.63;;;19.17;49.55
62694;BME280;48759;52.544;13.418;2023-03-23T03:47:46;99799.84;;;19.20;49.02
62694;BME280;48759;52.544;13.418;2023-03-23T03:50:13;99785.66;;;19.11;50.24
62694;BME280;48759;52.544;13.418;2023-03-23T03:52:42;99797.63;;;19.22;49.85
62694;BME280;48759;52.544;13.418;2023-03-23T03:55:10;99786.06;;;18.74;51.04
62694;BME280;48759;52.544;13.418;2023-03-23T03:57:38;99778.72;;;19.03;50.03
62694;BME280;48759;52.544;13.418;2023-03-23T04:00:08;99789.38;;;18.96;49.46
62694;BME280;48759;52.544;13.418;2023-03-23T04:02:41;99789.47;;;19.35;49.01
62694;BME280;48759;52.544;13.418;2023-03-23T04:05:09;99786.56;;;18.91;49.70
62694;BME280;48759;52.544;13.418;2023-03-23T04:07:38;99803.38;;;18.71;50.15
62694;BME280;48759;52.544;13.418;2023-03-23T04:10:10;99784.94;;;18.85;50.11
62694;BME280;48759;52.544;13.418;2023-03-23T04:12:38;99786.94;;;19.39;49.07
62694;BME280;48759;52.544;13.418;2023-03-23T04:15:06;99774.34;;;18.82;50.01
62694;BME280;48759;52.544;13.418;2023-03-23T04:17:34;99771.16;;;19.09;49.68
62694;BME280;48759;52.544;13.418;2023-03-23T04:20:01;99765.72;;;19.43;49.00
62694;BME280;48759;52.544;13.418;2023-03-23T04:22:32;99774.56;;;19.01;49.22
62694;BME280;48759;52.544;13.418;2023-03-23T04:25:00;99786.59;;;19.51;48.76
62694;BME280;48759;52.544;13.418;2023-03-23T04:27:33;99776.50;;;19.00;49.02
62694;BME280;48759;52.544;13.418;2023-03-23T04:30:00;99775.91;;;19.63;48.57
62694;BME280;48759;52.544;13.418;2023-03-23T04:32:28;99753.56;;;19.63;48.02
62694;BME280;48759;52.544;13.418;2023-03-23T04:34:56;99771.69;;;19.21;48.20
62694;BME280;48759;52.544;13.418;2023-03-23T04:37:25;99771.31;;;19.38;48.39
62694;BME280;48759;52.544;13.418;2023-03-23T04:39:54;99769.63;;;19.42;49.41
62694;BME280;48759;52.544;13.418;2023-03-23T04:42:26;99775.66;;;19.59;50.14
62694;BME280;48759;52.544;13.418;2023-03-23T04:44:55;99774.59;;;19.84;49.13
62694;BME280;48759;52.544;13.418;2023-03-23T04:47:24;99782.97;;;19.45;50.76
62694;BME280;48759;52.544;13.418;2023-03-23T04:49:54;99791.34;;;19.50;50.62
62694;BME280;48759;52.544;13.418;2023-03-23T04:52:23;99806.97;;;19.51;53.13
62694;BME280;48759;52.544;13.418;2023-03-23T04:54:51;99805.09;;;19.36;53.67
62694;BME280;48759;52.544;13.418;2023-03-23T04:57:19;99808.59;;;19.57;51.98
62694;BME280;48759;52.544;13.418;2023-03-23T04:59:45;99805.53;;;19.54;51.91
62694;BME280;48759;52.544;13.418;2023-03-23T05:02:14;99818.25;;;19.75;51.69
62694;BME280;48759;52.544;13.418;2023-03-23T05:04:42;99820.31;;;19.59;51.91
62694;BME280;48759;52.544;13.418;2023-03-23T05:07:10;99815.91;;;18.79;53.52
62694;BME280;48759;52.544;13.418;2023-03-23T05:09:38;99818.38;;;18.95;53.64
62694;BME280;48759;52.544;13.418;2023-03-23T05:12:05;99798.06;;;18.75;53.77
62694;BME280;48759;52.544;13.418;2023-03-23T05:14:32;99813.25;;;19.18;53.51
62694;BME280;48759;52.544;13.418;2023-03-23T05:17:00;99802.50;;;19.89;52.76
62694;BME280;48759;52.544;13.418;2023-03-23T05:19:28;99804.47;;;18.75;54.75
62694;BME280;48759;52.544;13.418;2023-03-23T05:21:56;99799.44;;;18.82;55.32
62694;BME280;48759;52.544;13.418;2023-03-23T05:24:29;99800.63;;;18.56;57.49
62694;BME280;48759;52.544;13.418;2023-03-23T05:26:58;99794.25;;;17.84;60.73
62694;BME280;48759;52.544;13.418;2023-03-23T05:29:25;99795.94;;;18.16;60.65
62694;BME280;48759;52.544;13.418;2023-03-23T05:31:52;99797.53;;;18.67;58.90
62694;BME280;48759;52.544;13.418;2023-03-23T05:34:21;99790.84;;;18.43;59.10
62694;BME280;48759;52.544;13.418;2023-03-23T05:36:49;99804.53;;;18.65;58.92
62694;BME280;48759;52.544;13.418;2023-03-23T05:39:18;99805.66;;;18.23;60.50
62694;BME280;48759;52.544;13.418;2023-03-23T05:41:45;99814.56;;;17.80;62.83
62694;BME280;48759;52.544;13.418;2023-03-23T05:44:12;99811.19;;;17.68;64.15
62694;BME280;48759;52.544;13.418;2023-03-23T05:46:39;99810.63;;;17.61;66.11
62694;BME280;48759;52.544;13.418;2023-03-23T05:49:06;99822.91;;;17.90;66.66
62694;BME280;48759;52.544;13.418;2023-03-23T05:51:32;99821.69;;;17.40;70.42
62694;BME280;48759;52.544;13.418;2023-03-23T05:54:02;99800.03;;;17.57;73.20
62694;BME280;48759;52.544;13.418;2023-03-23T05:56:29;99816.19;;;17.71;75.84
62694;BME280;48759;52.544;13.418;2023-03-23T05:58:57;99817.41;;;16.60;85.13
62694;BME280;48759;52.544;13.418;2023-03-23T06:01:24;99813.72;;;17.89;76.32
62694;BME280;48759;52.544;13.418;2023-03-23T06:03:51;99825.16;;;16.53;90.56
62694;BME280;48759;52.544;13.418;2023-03-23T06:06:19;99825.31;;;16.04;100.00
62694;BME280;48759;52.544;13.418;2023-03-23T06:08:46;99821.38;;;16.69;96.51
62694;BME280;48759;52.544;13.418;2023-03-23T06:11:17;99827.13;;;17.00;92.92
62694;BME280;48759;52.544;13.418;2023-03-23T06:13:44;99820.63;;;16.42;100.00
62694;BME280;48759;52.544;13.418;2023-03-23T06:16:11;99819.88;;;16.52;100.00
62694;BME280;48759;52.544;13.418;2023-03-23T06:18:37;99832.00;;;16.82;98.99
62694;BME280;48759;52.544;13.418;2023-03-23T06:21:06;99826.59;;;17.13;98.67
62694;BME280;48759;52.544;13.418;2023-03-23T06:23:33;99825.94;;;16.96;100.00
62694;BME280;48759;52.544;13.418;2023-03-23T06:26:03;99824.38;;;16.21;100.00
62694;BME280;48759;52.544;13.418;2023-03-23T06:28:32;99838.63;;;15.49;100.00
62694;BME280;48759;52.544;13.418;2023-03-23T06:30:59;99834.63;;;16.20;100.00
62694;BME280;48759;52.544;13.418;2023-03-23T06:33:27;99835.28;;;15.47;100.00
62694;BME280;48759;52.544;13.418;2023-03-23T06:35:54;99832.66;;;15.89;100.00
62694;BME280;48759;52.544;13.418;2023-03-23T06:38:21;99831.16;;;16.40;100.00
62694;BME280;48759;52.544;13.418;2023-03-23T06:40:48;99840.44;;;16.19;100.00
62694;BME280;48759;52.544;13.418;2023-03-23T06:43:15;99844.41;;;17.17;100.00
62694;BME280;48759;52.544;13.418;2023-03-23T06:45:44;99846.28;;;17.01;100.00
62694;BME280;48759;52.544;13.418;2023-03-23T06:48:10;99836.22;;;15.84;100.00
62694;BME280;48759;52.544;13.418;2023-03-23T06:50:37;99843.28;;;17.18;100.00
62694;BME280;48759;52.544;13.418;2023-03-23T06:53:04;99837.81;;;16.81;100.00
62694;BME280;48759;52.544;13.418;2023-03-23T06:55:31;99844.22;;;16.81;100.00
62694;BME280;48759;52.544;13.418;2023-03-23T06:57:57;99846.91;;;18.57;93.61
62694;BME280;48759;52.544;13.418;2023-03-23T07:00:27;99851.31;;;17.87;94.40
62694;BME280;48759;52.544;13.418;2023-03-23T07:02:56;99849.66;;;18.52;92.89
62694;BME280;48759;52.544;13.418;2023-03-23T07:05:22;99849.63;;;17.03;100.00
62694;BME280;48759;52.544;13.418;2023-03-23T07:07:50;99854.69;;;17.94;100.00
62694;BME280;48759;52.544;13.418;2023-03-23T07:10:17;99845.19;;;16.60;100.00
62694;BME280;48759;52.544;13.418;2023-03-23T07:12:52;99837.50;;;17.30;100.00
62694;BME280;48759;52.544;13.418;2023-03-23T07:15:43;99844.63;;;17.78;99.29
62694;BME280;48759;52.544;13.418;2023-03-23T07:18:33;99833.41;;;17.47;100.00
62694;BME280;48759;52.544;13.418;2023-03-23T07:21:00;99828.41;;;17.54;100.00
62694;BME280;48759;52.544;13.418;2023-03-23T07:23:28;99811.25;;;18.18;94.79
62694;BME280;48759;52.544;13.418;2023-03-23T07:25:55;99834.59;;;18.73;91.43
62694;BME280;48759;52.544;13.418;2023-03-23T07:28:23;99845.00;;;17.24;100.00
62694;BME280;48759;52.544;13.418;2023-03-23T07:30:50;99836.16;;;17.42;100.00
62694;BME280;48759;52.544;13.418;2023-03-23T07:33:18;99837.97;;;17.94;98.92
62694;BME280;48759;52.544;13.418;2023-03-23T07:35:46;99839.63;;;17.90;100.00
62694;BME280;48759;52.544;13.418;2023-03-23T07:38:13;99829.78;;;16.85;100.00
62694;BME280;48759;52.544;13.418;2023-03-23T07:40:40;99838.44;;;17.66;98.96
62694;BME280;48759;52.544;13.418;2023-03-23T07:43:07;99842.13;;;18.27;93.40
62694;BME280;48759;52.544;13.418;2023-03-23T07:45:34;99843.56;;;18.24;97.53
62694;BME280;48759;52.544;13.418;2023-03-23T07:48:01;99828.09;;;19.03;90.18
62694;BME280;48759;52.544;13.418;2023-03-23T07:50:28;99811.56;;;19.22;88.10
62694;BME280;48759;52.544;13.418;2023-03-23T07:52:57;99795.34;;;19.34;85.55
62694;BME280;48759;52.544;13.418;2023-03-23T07:55:25;99790.19;;;19.95;81.65
62694;BME280;48759;52.544;13.418;2023-03-23T07:57:53;99774.34;;;20.19;82.78
62694;BME280;48759;52.544;13.418;2023-03-23T08:00:22;99778.22;;;20.23;80.55
62694;BME280;48759;52.544;13.418;2023-03-23T08:02:51;99801.56;;;19.65;80.07
62694;BME280;48759;52.544;13.418;2023-03-23T08:05:18;99818.06;;;19.61;81.17
62694;BME280;48759;52.544;13.418;2023-03-23T08:07:45;99826.00;;;19.39;81.13
62694;BME280;48759;52.544;13.418;2023-03-23T08:10:15;99832.06;;;18.82;83.75
62694;BME280;48759;52.544;13.418;2023-03-23T08:12:43;99829.88;;;19.92;79.01
62694;BME280;48759;52.544;13.418;2023-03-23T08:15:12;99834.63;;;18.58;83.68
62694;BME280;48759;52.544;13.418;2023-03-23T08:17:40;99844.63;;;18.79;84.45
62694;BME280;48759;52.544;13.418;2023-03-23T08:20:09;99846.28;;;18.80;82.46
62694;BME280;48759;52.544;13.418;2023-03-23T08:22:38;99847.06;;;19.01;84.45
62694;BME280;48759;52.544;13.418;2023-03-23T08:25:07;99835.56;;;19.18;81.44
62694;BME280;48759;52.544;13.418;2023-03-23T08:27:36;99852.31;;;19.18;80.41
62694;BME280;48759;52.544;13.418;2023-03-23T08:30:09;99852.63;;;19.01;80.95
62694;BME280;48759;52.544;13.418;2023-03-23T08:32:36;99849.81;;;19.75;77.12
62694;BME280;48759;52.544;13.418;2023-03-23T08:35:04;99840.66;;;18.90;77.51
62694;BME280;48759;52.544;13.418;2023-03-23T08:37:31;99829.97;;;19.23;77.92
62694;BME280;48759;52.544;13.418;2023-03-23T08:39:57;99809.91;;;19.70;75.23
62694;BME280;48759;52.544;13.418;2023-03-23T08:42:24;99823.38;;;20.36;74.01
62694;BME280;48759;52.544;13.418;2023-03-23T08:44:53;99852.78;;;19.84;72.66
62694;BME280;48759;52.544;13.418;2023-03-23T08:47:20;99858.97;;;19.81;73.84
62694;BME280;48759;52.544;13.418;2023-03-23T08:49:46;99858.94;;;19.86;74.20
62694;BME280;48759;52.544;13.418;2023-03-23T08:52:18;99861.91;;;20.05;72.63
62694;BME280;48759;52.544;13.418;2023-03-23T08:54:44;99852.69;;;19.60;74.24
62694;BME280;48759;52.544;13.418;2023-03-23T08:57:12;99843.84;;;19.43;72.53
62694;BME280;48759;52.544;13.418;2023-03-23T08:59:39;99845.81;;;19.86;73.33
62694;BME280;48759;52.544;13.418;2023-03-23T09:02:09;99855.84;;;19.88;72.46
62694;BME280;48759;52.544;13.418;2023-03-23T09:04:37;99856.56;;;20.08;70.68
62694;BME280;48759;52.544;13.418;2023-03-23T09:07:04;99859.53;;;19.83;71.28
62694;BME280;48759;52.544;13.418;2023-03-23T09:09:31;99859.31;;;19.69;71.57
62694;BME280;48759;52.544;13.418;2023-03-23T09:11:59;99878.19;;;19.43;75.91
62694;BME280;48759;52.544;13.418;2023-03-23T09:14:26;99868.44;;;20.58;70.56
62694;BME280;48759;52.544;13.418;2023-03-23T09:16:53;99872.28;;;20.38;69.27
62694;BME280;48759;52.544;13.418;2023-03-23T09:19:21;99874.03;;;20.29;68.86
62694;BME280;48759;52.544;13.418;2023-03-23T09:21:48;99865.09;;;20.27;71.46
62694;BME280;48759;52.544;13.418;2023-03-23T09:24:15;99859.78;;;19.92;70.31
62694;BME280;48759;52.544;13.418;2023-03-23T09:26:42;99855.72;;;20.76;68.40
62694;BME280;48759;52.544;13.418;2023-03-23T09:29:08;99856.81;;;21.04;67.28
62694;BME280;48759;52.544;13.418;2023-03-23T09:31:36;99852.16;;;20.36;68.66
62694;BME280;48759;52.544;13.418;2023-03-23T09:34:05;99858.06;;;21.16;66.32
62694;BME280;48759;52.544;13.418;2023-03-23T09:36:36;99856.09;;;20.93;66.29
62694;BME280;48759;52.544;13.418;2023-03-23T09:39:04;99852.56;;;20.53;67.04
62694;BME280;48759;52.544;13.418;2023-03-23T09:42:05;99858.28;;;20.96;65.75
62694;BME280;48759;52.544;13.418;2023-03-23T09:44:42;99861.34;;;20.99;64.24
62694;BME280;48759;52.544;13.418;2023-03-23T09:47:17;99868.56;;;20.14;67.69
62694;BME280;48759;52.544;13.418;2023-03-23T09:49:51;99881.84;;;20.27;67.95
62694;BME280;48759;52.544;13.418;2023-03-23T09:52:22;99867.00;;;19.98;68.93
62694;BME280;48759;52.544;13.418;2023-03-23T09:54:51;99866.56;;;20.82;64.81
62694;BME280;48759;52.544;13.418;2023-03-23T09:57:30;99862.94;;;21.53;63.93
62694;BME280;48759;52.544;13.418;2023-03-23T10:00:02;99875.00;;;20.09;65.10
62694;BME280;48759;52.544;13.418;2023-03-23T10:02:34;99867.22;;;21.88;61.96
62694;BME280;48759;52.544;13.418;2023-03-23T10:05:22;99861.38;;;21.18;62.61
62694;BME280;48759;52.544;13.418;2023-03-23T10:07:53;99874.09;;;21.34;60.61
62694;BME280;48759;52.544;13.418;2023-03-23T10:10:22;99877.09;;;21.62;61.15
62694;BME280;48759;52.544;13.418;2023-03-23T10:12:55;99878.09;;;21.71;59.68
62694;BME280;48759;52.544;13.418;2023-03-23T10:15:26;99879.44;;;21.07;61.42
62694;BME280;48759;52.544;13.418;2023-03-23T10:17:57;99860.34;;;21.99;58.80
62694;BME280;48759;52.544;13.418;2023-03-23T10:20:36;99863.88;;;21.86;58.39
62694;BME280;48759;52.544;13.418;2023-03-23T10:23:14;99863.47;;;22.30;57.31
62694;BME280;48759;52.544;13.418;2023-03-23T10:25:42;99855.63;;;21.76;57.29
62694;BME280;48759;52.544;13.418;2023-03-23T10:28:13;99851.47;;;22.62;54.90
62694;BME280;48759;52.544;13.418;2023-03-23T10:30:44;99851.66;;;22.33;55.92
62694;BME280;48759;52.544;13.418;2023-03-23T10:33:15;99860.59;;;22.54;56.02
62694;BME280;48759;52.544;13.418;2023-03-23T10:35:48;99839.97;;;20.85;56.25
62694;BME280;48759;52.544;13.418;2023-03-23T10:38:22;99844.56;;;21.23;58.12
62694;BME280;48759;52.544;13.418;2023-03-23T10:40:54;99837.84;;;21.86;56.16
62694;BME280;48759;52.544;13.418;2023-03-23T10:43:22;99844.41;;;20.62;58.60
62694;BME280;48759;52.544;13.418;2023-03-23T10:45:55;99845.00;;;19.91;60.89
62694;BME280;48759;52.544;13.418;2023-03-23T10:48:33;99846.34;;;20.90;57.94
62694;BME280;48759;52.544;13.418;2023-03-23T10:51:04;99846.72;;;20.16;60.23
62694;BME280;48759;52.544;13.418;2023-03-23T10:53:36;99845.41;;;19.64;60.45
62694;BME280;48759;52.544;13.418;2023-03-23T10:56:05;99837.28;;;21.22;57.59
62694;BME280;48759;52.544;13.418;2023-03-23T10:58:46;99843.84;;;20.89;59.02
62694;BME280;48759;52.544;13.418;2023-03-23T11:01:12;99848.97;;;20.48;58.39
62694;BME280;48759;52.544;13.418;2023-03-23T11:03:41;99850.63;;;20.54;58.08
62694;BME280;48759;52.544;13.418;2023-03-23T11:06:10;99846.78;;;20.74;58.43
62694;BME280;48759;52.544;13.418;2023-03-23T11:08:49;99859.59;;;20.80;57.42
62694;BME280;48759;52.544;13.418;2023-03-23T11:11:19;99847.47;;;21.98;54.56
62694;BME280;48759;52.544;13.418;2023-03-23T11:13:49;99849.97;;;20.91;56.40
62694;BME280;48759;52.544;13.418;2023-03-23T11:16:25;99864.81;;;20.86;56.05
62694;BME280;48759;52.544;13.418;2023-03-23T11:18:53;99867.63;;;21.39;55.57
62694;BME280;48759;52.544;13.418;2023-03-23T11:21:22;99862.97;;;21.72;54.29
62694;BME280;48759;52.544;13.418;2023-03-23T11:23:53;99878.03;;;21.33;54.43
62694;BME280;48759;52.544;13.418;2023-03-23T11:26:24;99869.88;;;20.60;55.96
62694;BME280;48759;52.544;13.418;2023-03-23T11:28:53;99867.81;;;21.85;55.67
62694;BME280;48759;52.544;13.418;2023-03-23T11:31:22;99872.59;;;22.73;52.64
62694;BME280;48759;52.544;13.418;2023-03-23T11:33:53;99876.13;;;22.28;52.89
62694;BME280;48759;52.544;13.418;2023-03-23T11:36:20;99875.66;;;21.46;53.58
62694;BME280;48759;52.544;13.418;2023-03-23T11:38:54;99881.97;;;21.32;53.94
62694;BME280;48759;52.544;13.418;2023-03-23T11:41:23;99880.56;;;21.54;52.84
62694;BME280;48759;52.544;13.418;2023-03-23T11:43:52;99892.59;;;22.16;50.97
62694;BME280;48759;52.544;13.418;2023-03-23T11:46:29;99879.59;;;21.82;51.24
62694;BME280;48759;52.544;13.418;2023-03-23T11:49:01;99875.13;;;21.81;51.13
62694;BME280;48759;52.544;13.418;2023-03-23T11:51:34;99873.38;;;22.09;51.28
62694;BME280;48759;52.544;13.418;2023-03-23T11:54:11;99872.19;;;22.29;49.90
62694;BME280;48759;52.544;13.418;2023-03-23T11:56:43;99882.22;;;21.97;50.42
62694;BME280;48759;52.544;13.418;2023-03-23T11:59:12;99876.47;;;20.98;51.74
62694;BME280;48759;52.544;13.418;2023-03-23T12:01:47;99869.75;;;21.23;51.34
62694;BME280;48759;52.544;13.418;2023-03-23T12:04:30;99881.75;;;21.00;51.91
62694;BME280;48759;52.544;13.418;2023-03-23T12:07:14;99879.81;;;21.24;51.15
62694;BME280;48759;52.544;13.418;2023-03-23T12:09:50;99872.75;;;21.51;50.69
62694;BME280;48759;52.544;13.418;2023-03-23T12:12:26;99879.94;;;21.99;50.02
62694;BME280;48759;52.544;13.418;2023-03-23T12:15:05;99882.81;;;21.33;50.99
62694;BME280;48759;52.544;13.418;2023-03-23T12:17:43;99882.03;;;20.75;52.67
62694;BME280;48759;52.544;13.418;2023-03-23T12:20:20;99874.56;;;20.94;51.08
62694;BME280;48759;52.544;13.418;2023-03-23T12:22:57;99875.38;;;21.18;51.02
62694;BME280;48759;52.544;13.418;2023-03-23T12:25:54;99881.19;;;20.40;52.22
62694;BME280;48759;52.544;13.418;2023-03-23T12:28:37;99865.63;;;20.92;51.68
62694;BME280;48759;52.544;13.418;2023-03-23T12:31:13;99872.06;;;20.92;51.83
62694;BME280;48759;52.544;13.418;2023-03-23T12:33:49;99872.13;;;20.19;53.65
62694;BME280;48759;52.544;13.418;2023-03-23T12:36:34;99863.16;;;21.38;50.84
62694;BME280;48759;52.544;13.418;2023-03-23T12:39:29;99869.25;;;20.64;51.51
62694;BME280;48759;52.544;13.418;2023-03-23T12:42:04;99864.03;;;20.86;51.33
62694;BME280;48759;52.544;13.418;2023-03-23T12:44:47;99851.94;;;21.14;50.72
62694;BME280;48759;52.544;13.418;2023-03-23T12:47:35;99853.25;;;20.98;51.07
62694;BME280;48759;52.544;13.418;2023-03-23T12:50:07;99845.75;;;21.17;50.74
62694;BME280;48759;52.544;13.418;2023-03-23T12:52:44;99839.91;;;20.90;50.43
62694;BME280;48759;52.544;13.418;2023-03-23T12:55:16;99832.34;;;22.32;49.16
62694;BME280;48759;52.544;13.418;2023-03-23T12:57:50;99818.88;;;22.15;48.05
62694;BME280;48759;52.544;13.418;2023-03-23T13:00:23;99828.31;;;22.38;47.79
62694;BME280;48759;52.544;13.418;2023-03-23T13:02:54;99843.88;;;22.63;47.56
62694;BME280;48759;52.544;13.418;2023-03-23T13:05:40;99851.25;;;22.59;47.12
62694;BME280;48759;52.544;13.418;2023-03-23T13:08:13;99859.00;;;22.29;47.43
62694;BME280;48759;52.544;13.418;2023-03-23T13:10:45;99869.00;;;22.03;47.81
62694;BME280;48759;52.544;13.418;2023-03-23T13:13:17;99847.47;;;21.98;46.71
62694;BME280;48759;52.544;13.418;2023-03-23T13:15:51;99849.88;;;22.05;47.59
62694;BME280;48759;52.544;13.418;2023-03-23T13:18:27;99843.59;;;22.45;46.77